sensor_id;sensor_type;location;lat;lon;timestamp;P1;durP1;ratioP1;P2;durP2;ratioP2
71947;SDS011;63257;55.082;38.772;2022-10-16T00:01:20;6.75;;;3.80;;
71947;SDS011;63257;55.082;38.772;2022-10-16T00:03:48;8.65;;;3.58;;
71947;SDS011;63257;55.082;38.772;2022-10-16T00:06:16;8.63;;;4.43;;
71947;SDS011;63257;55.082;38.772;2022-10-16T00:08:43;7.78;;;3.70;;
71947;SDS011;63257;55.082;38.772;2022-10-16T00:11:14;12.63;;;3.95;;
71947;SDS011;63257;55.082;38.772;2022-10-16T00:13:43;6.87;;;4.00;;
71947;SDS011;63257;55.082;38.772;2022-10-16T00:16:11;7.72;;;3.80;;
71947;SDS011;63257;55.082;38.772;2022-10-16T00:18:38;8.88;;;4.00;;
71947;SDS011;63257;55.082;38.772;2022-10-16T00:23:58;7.30;;;3.70;;
71947;SDS011;63257;55.082;38.772;2022-10-16T00:26:26;7.40;;;3.50;;
71947;SDS011;63257;55.082;38.772;2022-10-16T00:28:53;8.80;;;3.90;;
71947;SDS011;63257;55.082;38.772;2022-10-16T00:31:20;8.57;;;3.37;;
71947;SDS011;63257;55.082;38.772;2022-10-16T00:33:47;6.65;;;3.85;;
71947;SDS011;63257;55.082;38.772;2022-10-16T00:36:14;7.43;;;3.30;;
71947;SDS011;63257;55.082;38.772;2022-10-16T00:38:43;7.07;;;3.80;;
71947;SDS011;63257;55.082;38.772;2022-10-16T00:41:11;7.00;;;3.67;;
71947;SDS011;63257;55.082;38.772;2022-10-16T00:44:00;7.75;;;3.85;;
71947;SDS011;63257;55.082;38.772;2022-10-16T00:46:27;8.73;;;4.07;;
71947;SDS011;63257;55.082;38.772;2022-10-16T00:49:00;8.77;;;3.42;;
71947;SDS011;63257;55.082;38.772;2022-10-16T00:51:35;8.55;;;3.55;;
71947;SDS011;63257;55.082;38.772;2022-10-16T00:54:08;6.63;;;3.63;;
71947;SDS011;63257;55.082;38.772;2022-10-16T00:56:41;7.63;;;3.13;;
71947;SDS011;63257;55.082;38.772;2022-10-16T00:59:19;7.55;;;3.08;;
71947;SDS011;63257;55.082;38.772;2022-10-16T01:01:50;10.30;;;3.45;;
71947;SDS011;63257;55.082;38.772;2022-10-16T01:04:17;6.60;;;3.40;;
71947;SDS011;63257;55.082;38.772;2022-10-16T01:06:52;7.15;;;3.25;;
71947;SDS011;63257;55.082;38.772;2022-10-16T01:10:07;7.50;;;3.30;;
71947;SDS011;63257;55.082;38.772;2022-10-16T01:17:45;7.60;;;3.22;;
71947;SDS011;63257;55.082;38.772;2022-10-16T01:20:47;8.30;;;3.30;;
71947;SDS011;63257;55.082;38.772;2022-10-16T01:29:20;6.15;;;3.10;;
71947;SDS011;63257;55.082;38.772;2022-10-16T01:31:56;7.15;;;3.70;;
71947;SDS011;63257;55.082;38.772;2022-10-16T01:34:42;7.22;;;3.30;;
71947;SDS011;63257;55.082;38.772;2022-10-16T01:37:26;7.60;;;3.42;;
71947;SDS011;63257;55.082;38.772;2022-10-16T01:40:07;8.23;;;3.30;;
71947;SDS011;63257;55.082;38.772;2022-10-16T01:42:58;10.05;;;3.60;;
71947;SDS011;63257;55.082;38.772;2022-10-16T01:45:28;7.68;;;3.40;;
71947;SDS011;63257;55.082;38.772;2022-10-16T01:47:56;8.23;;;3.60;;
71947;SDS011;63257;55.082;38.772;2022-10-16T01:50:25;7.07;;;3.40;;
71947;SDS011;63257;55.082;38.772;2022-10-16T01:52:53;7.72;;;3.65;;
71947;SDS011;63257;55.082;38.772;2022-10-16T01:55:25;7.47;;;3.60;;
71947;SDS011;63257;55.082;38.772;2022-10-16T01:57:55;7.43;;;3.63;;
71947;SDS011;63257;55.082;38.772;2022-10-16T02:00:24;7.90;;;3.80;;
71947;SDS011;63257;55.082;38.772;2022-10-16T02:02:51;7.65;;;3.33;;
71947;SDS011;63257;55.082;38.772;2022-10-16T02:07:45;7.78;;;3.65;;
71947;SDS011;63257;55.082;38.772;2022-10-16T02:10:12;6.63;;;3.60;;
71947;SDS011;63257;55.082;38.772;2022-10-16T02:12:39;7.22;;;3.58;;
71947;SDS011;63257;55.082;38.772;2022-10-16T02:15:10;9.40;;;3.70;;
71947;SDS011;63257;55.082;38.772;2022-10-16T02:17:36;7.40;;;3.60;;
71947;SDS011;63257;55.082;38.772;2022-10-16T02:20:02;7.50;;;3.53;;
71947;SDS011;63257;55.082;38.772;2022-10-16T02:22:47;6.75;;;3.50;;
71947;SDS011;63257;55.082;38.772;2022-10-16T02:25:30;8.47;;;3.70;;
71947;SDS011;63257;55.082;38.772;2022-10-16T02:28:06;8.75;;;3.85;;
71947;SDS011;63257;55.082;38.772;2022-10-16T02:30:39;7.03;;;3.58;;
71947;SDS011;63257;55.082;38.772;2022-10-16T02:33:10;9.27;;;4.03;;
71947;SDS011;63257;55.082;38.772;2022-10-16T02:35:39;7.80;;;3.80;;
71947;SDS011;63257;55.082;38.772;2022-10-16T02:38:07;7.60;;;3.83;;
71947;SDS011;63257;55.082;38.772;2022-10-16T02:40:33;6.25;;;3.70;;
71947;SDS011;63257;55.082;38.772;2022-10-16T02:43:00;7.47;;;3.60;;
71947;SDS011;63257;55.082;38.772;2022-10-16T02:45:29;8.48;;;3.38;;
71947;SDS011;63257;55.082;38.772;2022-10-16T02:47:55;7.55;;;3.72;;
71947;SDS011;63257;55.082;38.772;2022-10-16T02:50:21;7.23;;;3.57;;
71947;SDS011;63257;55.082;38.772;2022-10-16T02:52:47;8.80;;;3.85;;
71947;SDS011;63257;55.082;38.772;2022-10-16T02:55:14;8.68;;;4.10;;
71947;SDS011;63257;55.082;38.772;2022-10-16T02:57:41;8.17;;;4.10;;
71947;SDS011;63257;55.082;38.772;2022-10-16T03:00:07;6.47;;;3.90;;
71947;SDS011;63257;55.082;38.772;2022-10-16T03:02:35;6.85;;;3.70;;
71947;SDS011;63257;55.082;38.772;2022-10-16T03:05:00;7.93;;;3.90;;
71947;SDS011;63257;55.082;38.772;2022-10-16T03:07:28;7.72;;;4.00;;
71947;SDS011;63257;55.082;38.772;2022-10-16T03:09:55;10.18;;;4.20;;
71947;SDS011;63257;55.082;38.772;2022-10-16T03:12:21;8.10;;;3.90;;
71947;SDS011;63257;55.082;38.772;2022-10-16T03:14:47;13.75;;;5.15;;
71947;SDS011;63257;55.082;38.772;2022-10-16T03:17:13;9.30;;;4.43;;
71947;SDS011;63257;55.082;38.772;2022-10-16T03:19:41;9.40;;;4.50;;
71947;SDS011;63257;55.082;38.772;2022-10-16T03:22:07;9.05;;;4.43;;
71947;SDS011;63257;55.082;38.772;2022-10-16T03:24:33;9.30;;;4.25;;
71947;SDS011;63257;55.082;38.772;2022-10-16T03:26:59;8.45;;;4.20;;
71947;SDS011;63257;55.082;38.772;2022-10-16T03:29:25;8.02;;;4.13;;
71947;SDS011;63257;55.082;38.772;2022-10-16T03:31:52;10.05;;;4.35;;
71947;SDS011;63257;55.082;38.772;2022-10-16T03:34:19;9.13;;;4.43;;
71947;SDS011;63257;55.082;38.772;2022-10-16T03:36:45;7.82;;;4.15;;
71947;SDS011;63257;55.082;38.772;2022-10-16T03:39:13;9.55;;;4.60;;
71947;SDS011;63257;55.082;38.772;2022-10-16T03:41:39;8.87;;;4.23;;
71947;SDS011;63257;55.082;38.772;2022-10-16T03:44:05;10.50;;;4.70;;
71947;SDS011;63257;55.082;38.772;2022-10-16T03:46:31;8.27;;;4.40;;
71947;SDS011;63257;55.082;38.772;2022-10-16T03:48:57;9.23;;;4.72;;
71947;SDS011;63257;55.082;38.772;2022-10-16T03:51:23;9.43;;;4.60;;
71947;SDS011;63257;55.082;38.772;2022-10-16T03:53:48;9.30;;;4.60;;
71947;SDS011;63257;55.082;38.772;2022-10-16T03:56:15;9.70;;;4.50;;
71947;SDS011;63257;55.082;38.772;2022-10-16T03:58:41;11.60;;;5.60;;
71947;SDS011;63257;55.082;38.772;2022-10-16T04:01:07;9.35;;;5.38;;
71947;SDS011;63257;55.082;38.772;2022-10-16T04:03:33;10.32;;;5.18;;
71947;SDS011;63257;55.082;38.772;2022-10-16T04:05:59;11.50;;;5.07;;
71947;SDS011;63257;55.082;38.772;2022-10-16T04:08:25;7.80;;;4.50;;
71947;SDS011;63257;55.082;38.772;2022-10-16T04:10:50;11.57;;;5.00;;
71947;SDS011;63257;55.082;38.772;2022-10-16T04:13:16;11.68;;;5.22;;
71947;SDS011;63257;55.082;38.772;2022-10-16T04:15:42;9.40;;;4.93;;
71947;SDS011;63257;55.082;38.772;2022-10-16T04:18:10;9.10;;;4.87;;
71947;SDS011;63257;55.082;38.772;2022-10-16T04:20:36;9.23;;;5.18;;
71947;SDS011;63257;55.082;38.772;2022-10-16T04:23:02;10.23;;;4.63;;
71947;SDS011;63257;55.082;38.772;2022-10-16T04:25:28;10.48;;;5.05;;
71947;SDS011;63257;55.082;38.772;2022-10-16T04:27:54;11.48;;;5.20;;
71947;SDS011;63257;55.082;38.772;2022-10-16T04:30:20;9.35;;;5.00;;
71947;SDS011;63257;55.082;38.772;2022-10-16T04:32:49;10.50;;;5.30;;
71947;SDS011;63257;55.082;38.772;2022-10-16T04:35:19;10.00;;;5.10;;
71947;SDS011;63257;55.082;38.772;2022-10-16T04:37:46;11.00;;;4.50;;
71947;SDS011;63257;55.082;38.772;2022-10-16T04:40:12;9.63;;;4.57;;
71947;SDS011;63257;55.082;38.772;2022-10-16T04:42:39;10.90;;;5.50;;
71947;SDS011;63257;55.082;38.772;2022-10-16T04:45:05;15.20;;;5.43;;
71947;SDS011;63257;55.082;38.772;2022-10-16T04:47:32;10.38;;;5.53;;
71947;SDS011;63257;55.082;38.772;2022-10-16T04:49:58;11.23;;;5.60;;
71947;SDS011;63257;55.082;38.772;2022-10-16T04:52:28;10.33;;;5.10;;
71947;SDS011;63257;55.082;38.772;2022-10-16T04:54:57;11.68;;;5.68;;
71947;SDS011;63257;55.082;38.772;2022-10-16T04:57:27;10.88;;;5.03;;
71947;SDS011;63257;55.082;38.772;2022-10-16T04:59:53;13.23;;;6.50;;
71947;SDS011;63257;55.082;38.772;2022-10-16T05:02:19;14.73;;;5.30;;
71947;SDS011;63257;55.082;38.772;2022-10-16T05:04:45;11.95;;;5.40;;
71947;SDS011;63257;55.082;38.772;2022-10-16T05:07:11;13.67;;;5.17;;
71947;SDS011;63257;55.082;38.772;2022-10-16T05:09:37;15.00;;;6.30;;
71947;SDS011;63257;55.082;38.772;2022-10-16T05:12:03;11.03;;;5.97;;
71947;SDS011;63257;55.082;38.772;2022-10-16T05:14:29;11.48;;;5.72;;
71947;SDS011;63257;55.082;38.772;2022-10-16T05:16:56;11.98;;;5.55;;
71947;SDS011;63257;55.082;38.772;2022-10-16T05:19:28;11.00;;;5.60;;
71947;SDS011;63257;55.082;38.772;2022-10-16T05:21:57;10.65;;;5.50;;
71947;SDS011;63257;55.082;38.772;2022-10-16T05:24:24;9.32;;;5.03;;
71947;SDS011;63257;55.082;38.772;2022-10-16T05:26:50;10.43;;;5.30;;
71947;SDS011;63257;55.082;38.772;2022-10-16T05:29:17;11.45;;;5.50;;
71947;SDS011;63257;55.082;38.772;2022-10-16T05:31:43;14.68;;;5.30;;
71947;SDS011;63257;55.082;38.772;2022-10-16T05:34:09;12.77;;;4.85;;
71947;SDS011;63257;55.082;38.772;2022-10-16T05:36:43;10.68;;;4.80;;
71947;SDS011;63257;55.082;38.772;2022-10-16T05:39:10;11.07;;;5.10;;
71947;SDS011;63257;55.082;38.772;2022-10-16T05:41:37;18.55;;;9.43;;
71947;SDS011;63257;55.082;38.772;2022-10-16T05:44:06;8.20;;;4.55;;
71947;SDS011;63257;55.082;38.772;2022-10-16T05:46:35;9.80;;;4.72;;
71947;SDS011;63257;55.082;38.772;2022-10-16T05:49:00;9.20;;;4.50;;
71947;SDS011;63257;55.082;38.772;2022-10-16T05:51:26;10.50;;;4.63;;
71947;SDS011;63257;55.082;38.772;2022-10-16T05:53:53;10.38;;;4.90;;
71947;SDS011;63257;55.082;38.772;2022-10-16T05:56:19;9.83;;;4.53;;
71947;SDS011;63257;55.082;38.772;2022-10-16T05:58:45;10.90;;;5.00;;
71947;SDS011;63257;55.082;38.772;2022-10-16T06:01:12;25.17;;;10.35;;
71947;SDS011;63257;55.082;38.772;2022-10-16T06:03:43;12.00;;;5.83;;
71947;SDS011;63257;55.082;38.772;2022-10-16T06:06:14;15.25;;;4.90;;
71947;SDS011;63257;55.082;38.772;2022-10-16T06:08:59;8.32;;;4.80;;
71947;SDS011;63257;55.082;38.772;2022-10-16T06:11:26;13.25;;;4.63;;
71947;SDS011;63257;55.082;38.772;2022-10-16T06:14:00;9.57;;;4.82;;
71947;SDS011;63257;55.082;38.772;2022-10-16T06:16:32;9.88;;;4.45;;
71947;SDS011;63257;55.082;38.772;2022-10-16T06:19:00;9.55;;;4.20;;
71947;SDS011;63257;55.082;38.772;2022-10-16T06:21:26;9.40;;;4.03;;
71947;SDS011;63257;55.082;38.772;2022-10-16T06:23:54;10.27;;;4.63;;
71947;SDS011;63257;55.082;38.772;2022-10-16T06:26:29;8.73;;;4.03;;
71947;SDS011;63257;55.082;38.772;2022-10-16T06:28:57;8.90;;;4.17;;
71947;SDS011;63257;55.082;38.772;2022-10-16T06:31:30;9.07;;;4.05;;
71947;SDS011;63257;55.082;38.772;2022-10-16T06:33:58;8.55;;;4.00;;
71947;SDS011;63257;55.082;38.772;2022-10-16T06:36:25;9.13;;;4.30;;
71947;SDS011;63257;55.082;38.772;2022-10-16T06:38:52;11.70;;;4.93;;
71947;SDS011;63257;55.082;38.772;2022-10-16T06:41:19;9.40;;;4.25;;
71947;SDS011;63257;55.082;38.772;2022-10-16T06:43:46;8.70;;;4.43;;
71947;SDS011;63257;55.082;38.772;2022-10-16T06:46:16;12.50;;;4.93;;
71947;SDS011;63257;55.082;38.772;2022-10-16T06:48:45;8.70;;;4.20;;
71947;SDS011;63257;55.082;38.772;2022-10-16T06:51:15;11.20;;;4.70;;
71947;SDS011;63257;55.082;38.772;2022-10-16T06:53:47;11.87;;;4.70;;
71947;SDS011;63257;55.082;38.772;2022-10-16T06:56:25;9.30;;;4.30;;
71947;SDS011;63257;55.082;38.772;2022-10-16T06:58:53;10.13;;;4.18;;
71947;SDS011;63257;55.082;38.772;2022-10-16T07:01:25;10.57;;;4.20;;
71947;SDS011;63257;55.082;38.772;2022-10-16T07:03:51;12.15;;;4.45;;
71947;SDS011;63257;55.082;38.772;2022-10-16T07:09:44;8.77;;;3.95;;
71947;SDS011;63257;55.082;38.772;2022-10-16T07:16:07;8.55;;;3.78;;
71947;SDS011;63257;55.082;38.772;2022-10-16T07:24:05;16.47;;;6.97;;
71947;SDS011;63257;55.082;38.772;2022-10-16T07:30:20;10.43;;;4.25;;
71947;SDS011;63257;55.082;38.772;2022-10-16T07:32:46;10.70;;;3.97;;
71947;SDS011;63257;55.082;38.772;2022-10-16T07:35:17;8.80;;;3.85;;
71947;SDS011;63257;55.082;38.772;2022-10-16T07:37:45;8.80;;;4.25;;
71947;SDS011;63257;55.082;38.772;2022-10-16T07:40:17;10.13;;;4.15;;
71947;SDS011;63257;55.082;38.772;2022-10-16T07:50:04;8.27;;;4.22;;
71947;SDS011;63257;55.082;38.772;2022-10-16T07:52:47;12.50;;;4.82;;
71947;SDS011;63257;55.082;38.772;2022-10-16T07:55:13;8.90;;;3.92;;
71947;SDS011;63257;55.082;38.772;2022-10-16T07:57:39;11.32;;;4.03;;
71947;SDS011;63257;55.082;38.772;2022-10-16T08:00:07;9.27;;;3.78;;
71947;SDS011;63257;55.082;38.772;2022-10-16T08:02:41;11.80;;;5.27;;
71947;SDS011;63257;55.082;38.772;2022-10-16T08:05:07;9.45;;;4.03;;
71947;SDS011;63257;55.082;38.772;2022-10-16T08:07:33;13.63;;;5.03;;
71947;SDS011;63257;55.082;38.772;2022-10-16T08:10:01;13.02;;;5.15;;
71947;SDS011;63257;55.082;38.772;2022-10-16T08:12:28;10.73;;;3.95;;
71947;SDS011;63257;55.082;38.772;2022-10-16T08:14:54;10.50;;;5.13;;
71947;SDS011;63257;55.082;38.772;2022-10-16T08:17:20;9.87;;;4.10;;
71947;SDS011;63257;55.082;38.772;2022-10-16T08:19:48;9.55;;;4.45;;
71947;SDS011;63257;55.082;38.772;2022-10-16T08:22:14;8.50;;;4.13;;
71947;SDS011;63257;55.082;38.772;2022-10-16T08:24:40;8.87;;;4.30;;
71947;SDS011;63257;55.082;38.772;2022-10-16T08:27:06;10.15;;;3.67;;
71947;SDS011;63257;55.082;38.772;2022-10-16T08:29:36;7.63;;;3.75;;
71947;SDS011;63257;55.082;38.772;2022-10-16T08:32:04;8.73;;;3.70;;
71947;SDS011;63257;55.082;38.772;2022-10-16T08:34:30;8.60;;;3.90;;
71947;SDS011;63257;55.082;38.772;2022-10-16T08:36:56;8.35;;;3.63;;
71947;SDS011;63257;55.082;38.772;2022-10-16T08:39:22;8.07;;;3.40;;
71947;SDS011;63257;55.082;38.772;2022-10-16T08:50:33;6.45;;;3.20;;
71947;SDS011;63257;55.082;38.772;2022-10-16T08:53:04;5.80;;;2.90;;
71947;SDS011;63257;55.082;38.772;2022-10-16T08:55:38;7.95;;;3.20;;
71947;SDS011;63257;55.082;38.772;2022-10-16T08:58:13;5.95;;;3.22;;
71947;SDS011;63257;55.082;38.772;2022-10-16T09:00:42;7.07;;;2.90;;
71947;SDS011;63257;55.082;38.772;2022-10-16T09:03:29;6.60;;;2.75;;
71947;SDS011;63257;55.082;38.772;2022-10-16T09:06:45;6.53;;;2.92;;
71947;SDS011;63257;55.082;38.772;2022-10-16T09:09:24;6.43;;;3.00;;
71947;SDS011;63257;55.082;38.772;2022-10-16T09:12:24;9.02;;;3.00;;
71947;SDS011;63257;55.082;38.772;2022-10-16T09:15:01;11.95;;;5.07;;
71947;SDS011;63257;55.082;38.772;2022-10-16T09:17:41;7.83;;;3.10;;
71947;SDS011;63257;55.082;38.772;2022-10-16T09:20:29;7.10;;;2.75;;
71947;SDS011;63257;55.082;38.772;2022-10-16T09:23:18;7.18;;;3.20;;
71947;SDS011;63257;55.082;38.772;2022-10-16T09:25:50;7.13;;;3.20;;
71947;SDS011;63257;55.082;38.772;2022-10-16T09:28:19;8.23;;;2.95;;
71947;SDS011;63257;55.082;38.772;2022-10-16T09:30:46;10.23;;;3.27;;
71947;SDS011;63257;55.082;38.772;2022-10-16T09:33:16;6.82;;;3.17;;
71947;SDS011;63257;55.082;38.772;2022-10-16T09:35:45;8.20;;;3.38;;
71947;SDS011;63257;55.082;38.772;2022-10-16T09:38:25;8.88;;;3.03;;
71947;SDS011;63257;55.082;38.772;2022-10-16T09:40:57;9.32;;;4.05;;
71947;SDS011;63257;55.082;38.772;2022-10-16T09:43:35;6.77;;;3.40;;
71947;SDS011;63257;55.082;38.772;2022-10-16T09:46:07;7.35;;;2.80;;
71947;SDS011;63257;55.082;38.772;2022-10-16T09:48:49;8.27;;;2.92;;
71947;SDS011;63257;55.082;38.772;2022-10-16T09:51:32;8.95;;;3.22;;
71947;SDS011;63257;55.082;38.772;2022-10-16T09:56:34;6.23;;;3.03;;
71947;SDS011;63257;55.082;38.772;2022-10-16T10:01:51;13.48;;;3.10;;
71947;SDS011;63257;55.082;38.772;2022-10-16T10:04:22;6.20;;;2.90;;
71947;SDS011;63257;55.082;38.772;2022-10-16T10:06:54;5.78;;;2.95;;
71947;SDS011;63257;55.082;38.772;2022-10-16T10:09:30;6.20;;;3.00;;
71947;SDS011;63257;55.082;38.772;2022-10-16T10:12:05;6.63;;;2.90;;
71947;SDS011;63257;55.082;38.772;2022-10-16T10:14:46;5.40;;;2.90;;
71947;SDS011;63257;55.082;38.772;2022-10-16T10:17:26;4.50;;;2.30;;
71947;SDS011;63257;55.082;38.772;2022-10-16T10:19:55;8.35;;;3.45;;
71947;SDS011;63257;55.082;38.772;2022-10-16T10:39:01;7.93;;;3.40;;
71947;SDS011;63257;55.082;38.772;2022-10-16T10:48:11;8.57;;;3.65;;
71947;SDS011;63257;55.082;38.772;2022-10-16T10:59:22;6.95;;;3.22;;
71947;SDS011;63257;55.082;38.772;2022-10-16T11:01:56;5.78;;;3.03;;
71947;SDS011;63257;55.082;38.772;2022-10-16T11:04:42;8.07;;;3.30;;
71947;SDS011;63257;55.082;38.772;2022-10-16T11:07:27;7.25;;;3.30;;
71947;SDS011;63257;55.082;38.772;2022-10-16T11:10:05;8.57;;;3.50;;
71947;SDS011;63257;55.082;38.772;2022-10-16T11:12:41;7.35;;;3.30;;
71947;SDS011;63257;55.082;38.772;2022-10-16T11:15:27;7.47;;;3.63;;
71947;SDS011;63257;55.082;38.772;2022-10-16T11:18:07;6.60;;;3.40;;
71947;SDS011;63257;55.082;38.772;2022-10-16T11:20:38;7.03;;;3.25;;
71947;SDS011;63257;55.082;38.772;2022-10-16T11:25:57;6.63;;;2.88;;
71947;SDS011;63257;55.082;38.772;2022-10-16T11:31:32;9.23;;;3.63;;
71947;SDS011;63257;55.082;38.772;2022-10-16T11:34:31;10.93;;;3.92;;
71947;SDS011;63257;55.082;38.772;2022-10-16T11:37:38;7.60;;;3.50;;
71947;SDS011;63257;55.082;38.772;2022-10-16T11:40:27;8.05;;;3.70;;
71947;SDS011;63257;55.082;38.772;2022-10-16T11:43:04;6.80;;;3.35;;
71947;SDS011;63257;55.082;38.772;2022-10-16T11:45:49;9.80;;;4.00;;
71947;SDS011;63257;55.082;38.772;2022-10-16T11:48:42;8.57;;;4.30;;
71947;SDS011;63257;55.082;38.772;2022-10-16T11:51:40;8.02;;;4.10;;
71947;SDS011;63257;55.082;38.772;2022-10-16T11:57:02;8.15;;;3.75;;
71947;SDS011;63257;55.082;38.772;2022-10-16T12:05:33;9.68;;;4.00;;
71947;SDS011;63257;55.082;38.772;2022-10-16T12:08:21;7.22;;;3.38;;
71947;SDS011;63257;55.082;38.772;2022-10-16T12:10:54;7.03;;;3.55;;
71947;SDS011;63257;55.082;38.772;2022-10-16T12:13:49;6.77;;;3.50;;
71947;SDS011;63257;55.082;38.772;2022-10-16T12:18:47;6.97;;;3.50;;
71947;SDS011;63257;55.082;38.772;2022-10-16T12:21:15;6.63;;;3.35;;
71947;SDS011;63257;55.082;38.772;2022-10-16T12:23:49;6.95;;;3.72;;
71947;SDS011;63257;55.082;38.772;2022-10-16T12:26:29;7.27;;;3.80;;
71947;SDS011;63257;55.082;38.772;2022-10-16T12:29:13;6.22;;;3.33;;
71947;SDS011;63257;55.082;38.772;2022-10-16T12:31:57;5.85;;;3.65;;
71947;SDS011;63257;55.082;38.772;2022-10-16T12:40:16;7.00;;;3.40;;
71947;SDS011;63257;55.082;38.772;2022-10-16T12:52:51;7.33;;;3.70;;
71947;SDS011;63257;55.082;38.772;2022-10-16T12:55:22;6.72;;;3.80;;
71947;SDS011;63257;55.082;38.772;2022-10-16T13:00:59;7.95;;;4.10;;
71947;SDS011;63257;55.082;38.772;2022-10-16T13:31:19;5.68;;;3.45;;
71947;SDS011;63257;55.082;38.772;2022-10-16T13:33:55;7.53;;;3.90;;
71947;SDS011;63257;55.082;38.772;2022-10-16T13:46:22;10.25;;;5.22;;
71947;SDS011;63257;55.082;38.772;2022-10-16T13:51:57;13.88;;;6.10;;
71947;SDS011;63257;55.082;38.772;2022-10-16T13:57:23;15.27;;;7.57;;
71947;SDS011;63257;55.082;38.772;2022-10-16T14:02:57;25.53;;;10.53;;
71947;SDS011;63257;55.082;38.772;2022-10-16T14:08:22;20.88;;;9.95;;
71947;SDS011;63257;55.082;38.772;2022-10-16T14:10:55;20.23;;;9.15;;
71947;SDS011;63257;55.082;38.772;2022-10-16T14:13:44;19.45;;;9.82;;
71947;SDS011;63257;55.082;38.772;2022-10-16T14:16:19;21.97;;;10.63;;
71947;SDS011;63257;55.082;38.772;2022-10-16T14:19:01;22.13;;;9.98;;
71947;SDS011;63257;55.082;38.772;2022-10-16T14:21:30;17.27;;;9.05;;
71947;SDS011;63257;55.082;38.772;2022-10-16T14:24:44;19.63;;;9.32;;
71947;SDS011;63257;55.082;38.772;2022-10-16T14:27:21;20.33;;;10.60;;
71947;SDS011;63257;55.082;38.772;2022-10-16T14:32:51;24.15;;;9.82;;
71947;SDS011;63257;55.082;38.772;2022-10-16T14:35:34;17.38;;;8.68;;
71947;SDS011;63257;55.082;38.772;2022-10-16T14:38:14;16.40;;;7.43;;
71947;SDS011;63257;55.082;38.772;2022-10-16T14:40:48;17.83;;;7.60;;
71947;SDS011;63257;55.082;38.772;2022-10-16T14:43:32;14.30;;;7.43;;
71947;SDS011;63257;55.082;38.772;2022-10-16T14:46:01;16.02;;;6.60;;
71947;SDS011;63257;55.082;38.772;2022-10-16T14:48:33;16.67;;;6.80;;
71947;SDS011;63257;55.082;38.772;2022-10-16T14:51:08;17.17;;;6.95;;
71947;SDS011;63257;55.082;38.772;2022-10-16T14:53:41;16.98;;;7.55;;
71947;SDS011;63257;55.082;38.772;2022-10-16T14:56:18;15.85;;;6.80;;
71947;SDS011;63257;55.082;38.772;2022-10-16T14:58:47;17.87;;;7.93;;
71947;SDS011;63257;55.082;38.772;2022-10-16T15:01:20;23.02;;;10.45;;
71947;SDS011;63257;55.082;38.772;2022-10-16T15:03:50;18.83;;;9.65;;
71947;SDS011;63257;55.082;38.772;2022-10-16T15:06:19;22.65;;;9.30;;
71947;SDS011;63257;55.082;38.772;2022-10-16T15:08:48;20.13;;;9.87;;
71947;SDS011;63257;55.082;38.772;2022-10-16T15:11:15;22.33;;;9.95;;
71947;SDS011;63257;55.082;38.772;2022-10-16T15:13:46;23.83;;;10.45;;
71947;SDS011;63257;55.082;38.772;2022-10-16T15:16:15;26.23;;;9.70;;
71947;SDS011;63257;55.082;38.772;2022-10-16T15:18:50;22.40;;;10.90;;
71947;SDS011;63257;55.082;38.772;2022-10-16T15:21:26;33.30;;;15.43;;
71947;SDS011;63257;55.082;38.772;2022-10-16T15:26:48;33.57;;;14.80;;
71947;SDS011;63257;55.082;38.772;2022-10-16T15:29:17;46.33;;;18.80;;
71947;SDS011;63257;55.082;38.772;2022-10-16T15:31:45;35.72;;;13.95;;
71947;SDS011;63257;55.082;38.772;2022-10-16T15:37:27;26.23;;;11.00;;
71947;SDS011;63257;55.082;38.772;2022-10-16T15:40:11;23.70;;;10.27;;
71947;SDS011;63257;55.082;38.772;2022-10-16T15:42:55;25.67;;;10.98;;
71947;SDS011;63257;55.082;38.772;2022-10-16T15:45:32;21.40;;;9.88;;
71947;SDS011;63257;55.082;38.772;2022-10-16T15:48:22;18.53;;;8.93;;
71947;SDS011;63257;55.082;38.772;2022-10-16T15:50:48;19.90;;;9.13;;
71947;SDS011;63257;55.082;38.772;2022-10-16T15:53:15;23.52;;;9.27;;
71947;SDS011;63257;55.082;38.772;2022-10-16T15:55:43;16.80;;;8.00;;
71947;SDS011;63257;55.082;38.772;2022-10-16T15:58:19;17.45;;;8.25;;
71947;SDS011;63257;55.082;38.772;2022-10-16T16:01:01;15.82;;;8.20;;
71947;SDS011;63257;55.082;38.772;2022-10-16T16:03:29;13.60;;;7.47;;
71947;SDS011;63257;55.082;38.772;2022-10-16T16:06:07;14.60;;;7.30;;
71947;SDS011;63257;55.082;38.772;2022-10-16T16:08:41;17.33;;;7.55;;
71947;SDS011;63257;55.082;38.772;2022-10-16T16:11:08;13.98;;;7.60;;
71947;SDS011;63257;55.082;38.772;2022-10-16T16:13:53;15.30;;;7.17;;
71947;SDS011;63257;55.082;38.772;2022-10-16T16:19:14;30.08;;;9.38;;
71947;SDS011;63257;55.082;38.772;2022-10-16T16:21:42;16.75;;;8.25;;
71947;SDS011;63257;55.082;38.772;2022-10-16T16:24:20;14.30;;;7.85;;
71947;SDS011;63257;55.082;38.772;2022-10-16T16:26:48;14.98;;;7.50;;
71947;SDS011;63257;55.082;38.772;2022-10-16T16:29:19;16.30;;;7.35;;
71947;SDS011;63257;55.082;38.772;2022-10-16T16:31:50;16.97;;;7.70;;
71947;SDS011;63257;55.082;38.772;2022-10-16T16:34:26;31.23;;;8.48;;
71947;SDS011;63257;55.082;38.772;2022-10-16T16:36:56;19.77;;;7.85;;
71947;SDS011;63257;55.082;38.772;2022-10-16T16:39:27;16.90;;;7.73;;
71947;SDS011;63257;55.082;38.772;2022-10-16T16:41:56;16.20;;;7.32;;
71947;SDS011;63257;55.082;38.772;2022-10-16T16:44:44;20.25;;;8.05;;
71947;SDS011;63257;55.082;38.772;2022-10-16T16:54:26;13.73;;;6.30;;
71947;SDS011;63257;55.082;38.772;2022-10-16T16:57:00;13.48;;;6.13;;
71947;SDS011;63257;55.082;38.772;2022-10-16T16:59:26;12.07;;;5.80;;
71947;SDS011;63257;55.082;38.772;2022-10-16T17:01:52;12.23;;;6.22;;
71947;SDS011;63257;55.082;38.772;2022-10-16T17:04:18;15.07;;;7.18;;
71947;SDS011;63257;55.082;38.772;2022-10-16T17:12:19;14.18;;;5.78;;
71947;SDS011;63257;55.082;38.772;2022-10-16T17:19:04;12.23;;;5.88;;
71947;SDS011;63257;55.082;38.772;2022-10-16T17:21:35;12.43;;;5.60;;
71947;SDS011;63257;55.082;38.772;2022-10-16T17:24:02;10.90;;;5.50;;
71947;SDS011;63257;55.082;38.772;2022-10-16T17:29:13;14.68;;;5.93;;
71947;SDS011;63257;55.082;38.772;2022-10-16T17:31:41;9.23;;;5.60;;
71947;SDS011;63257;55.082;38.772;2022-10-16T17:34:08;15.10;;;5.50;;
71947;SDS011;63257;55.082;38.772;2022-10-16T17:36:36;10.95;;;5.80;;
71947;SDS011;63257;55.082;38.772;2022-10-16T17:39:05;13.50;;;6.18;;
71947;SDS011;63257;55.082;38.772;2022-10-16T17:41:33;13.37;;;5.37;;
71947;SDS011;63257;55.082;38.772;2022-10-16T17:44:01;12.82;;;5.88;;
71947;SDS011;63257;55.082;38.772;2022-10-16T17:46:29;10.80;;;5.63;;
71947;SDS011;63257;55.082;38.772;2022-10-16T17:48:55;14.70;;;5.55;;
71947;SDS011;63257;55.082;38.772;2022-10-16T17:51:23;14.13;;;6.07;;
71947;SDS011;63257;55.082;38.772;2022-10-16T17:53:54;12.52;;;6.05;;
71947;SDS011;63257;55.082;38.772;2022-10-16T17:56:22;13.77;;;6.63;;
71947;SDS011;63257;55.082;38.772;2022-10-16T17:58:50;11.23;;;5.57;;
71947;SDS011;63257;55.082;38.772;2022-10-16T18:03:52;14.10;;;6.85;;
71947;SDS011;63257;55.082;38.772;2022-10-16T18:06:20;15.53;;;7.07;;
71947;SDS011;63257;55.082;38.772;2022-10-16T18:08:46;12.68;;;6.22;;
71947;SDS011;63257;55.082;38.772;2022-10-16T18:11:12;13.40;;;6.20;;
71947;SDS011;63257;55.082;38.772;2022-10-16T18:13:38;11.73;;;5.72;;
71947;SDS011;63257;55.082;38.772;2022-10-16T18:16:06;12.57;;;6.47;;
71947;SDS011;63257;55.082;38.772;2022-10-16T18:18:35;12.57;;;5.25;;
71947;SDS011;63257;55.082;38.772;2022-10-16T18:21:03;10.25;;;5.28;;